sensor_id;sensor_type;location;lat;lon;timestamp;P1;durP1;ratioP1;P2;durP2;ratioP2
63714;SDS011;49858;48.956;9.076;2023-02-28T00:01:23;4.85;;;2.95;;
63714;SDS011;49858;48.956;9.076;2023-02-28T00:03:53;6.88;;;3.63;;
63714;SDS011;49858;48.956;9.076;2023-02-28T00:06:20;5.25;;;3.80;;
63714;SDS011;49858;48.956;9.076;2023-02-28T00:08:48;4.18;;;2.28;;
63714;SDS011;49858;48.956;9.076;2023-02-28T00:11:16;3.08;;;2.33;;
63714;SDS011;49858;48.956;9.076;2023-02-28T00:13:44;5.15;;;2.85;;
63714;SDS011;49858;48.956;9.076;2023-02-28T00:16:14;4.60;;;3.58;;
63714;SDS011;49858;48.956;9.076;2023-02-28T00:18:43;4.97;;;3.28;;
63714;SDS011;49858;48.956;9.076;2023-02-28T00:21:12;8.57;;;4.03;;
63714;SDS011;49858;48.956;9.076;2023-02-28T00:23:40;4.30;;;3.00;;
63714;SDS011;49858;48.956;9.076;2023-02-28T00:26:08;2.67;;;2.13;;
63714;SDS011;49858;48.956;9.076;2023-02-28T00:28:36;4.85;;;2.92;;
63714;SDS011;49858;48.956;9.076;2023-02-28T00:31:04;4.75;;;3.10;;
63714;SDS011;49858;48.956;9.076;2023-02-28T00:33:34;5.80;;;4.05;;
63714;SDS011;49858;48.956;9.076;2023-02-28T00:36:03;2.83;;;2.55;;
63714;SDS011;49858;48.956;9.076;2023-02-28T00:38:36;6.80;;;3.67;;
63714;SDS011;49858;48.956;9.076;2023-02-28T00:41:04;2.63;;;1.88;;
63714;SDS011;49858;48.956;9.076;2023-02-28T00:43:33;5.07;;;2.75;;
63714;SDS011;49858;48.956;9.076;2023-02-28T00:46:03;6.22;;;3.63;;
63714;SDS011;49858;48.956;9.076;2023-02-28T00:48:31;2.83;;;2.30;;
63714;SDS011;49858;48.956;9.076;2023-02-28T00:50:59;2.15;;;1.92;;
63714;SDS011;49858;48.956;9.076;2023-02-28T00:53:28;4.25;;;3.33;;
63714;SDS011;49858;48.956;9.076;2023-02-28T00:55:57;6.07;;;3.45;;
63714;SDS011;49858;48.956;9.076;2023-02-28T00:58:25;4.20;;;2.53;;
63714;SDS011;49858;48.956;9.076;2023-02-28T01:00:54;6.88;;;3.92;;
63714;SDS011;49858;48.956;9.076;2023-02-28T01:03:22;9.27;;;3.47;;
63714;SDS011;49858;48.956;9.076;2023-02-28T01:05:50;5.40;;;3.05;;
63714;SDS011;49858;48.956;9.076;2023-02-28T01:08:19;4.55;;;3.22;;
63714;SDS011;49858;48.956;9.076;2023-02-28T01:10:49;3.70;;;3.10;;
63714;SDS011;49858;48.956;9.076;2023-02-28T01:13:18;4.40;;;3.53;;
63714;SDS011;49858;48.956;9.076;2023-02-28T01:15:48;5.70;;;2.75;;
63714;SDS011;49858;48.956;9.076;2023-02-28T01:18:18;3.97;;;2.67;;
63714;SDS011;49858;48.956;9.076;2023-02-28T01:20:47;3.28;;;1.60;;
63714;SDS011;49858;48.956;9.076;2023-02-28T01:23:15;4.85;;;3.20;;
63714;SDS011;49858;48.956;9.076;2023-02-28T01:25:43;7.30;;;4.30;;
63714;SDS011;49858;48.956;9.076;2023-02-28T01:28:11;2.75;;;2.15;;
63714;SDS011;49858;48.956;9.076;2023-02-28T01:30:40;5.78;;;2.72;;
63714;SDS011;49858;48.956;9.076;2023-02-28T01:33:08;1.88;;;1.38;;
63714;SDS011;49858;48.956;9.076;2023-02-28T01:35:36;4.40;;;3.38;;
63714;SDS011;49858;48.956;9.076;2023-02-28T01:38:04;4.45;;;3.00;;
63714;SDS011;49858;48.956;9.076;2023-02-28T01:40:48;4.50;;;3.35;;
63714;SDS011;49858;48.956;9.076;2023-02-28T01:43:19;5.05;;;3.55;;
63714;SDS011;49858;48.956;9.076;2023-02-28T01:45:50;5.05;;;3.25;;
63714;SDS011;49858;48.956;9.076;2023-02-28T01:48:18;2.03;;;1.67;;
63714;SDS011;49858;48.956;9.076;2023-02-28T01:50:48;7.55;;;3.08;;
63714;SDS011;49858;48.956;9.076;2023-02-28T01:53:18;5.15;;;3.10;;
63714;SDS011;49858;48.956;9.076;2023-02-28T01:58:20;3.72;;;3.08;;
63714;SDS011;49858;48.956;9.076;2023-02-28T02:00:50;4.85;;;3.45;;
63714;SDS011;49858;48.956;9.076;2023-02-28T02:03:18;3.50;;;2.20;;
63714;SDS011;49858;48.956;9.076;2023-02-28T02:05:47;8.50;;;4.07;;
63714;SDS011;49858;48.956;9.076;2023-02-28T02:08:17;3.47;;;2.33;;
63714;SDS011;49858;48.956;9.076;2023-02-28T02:10:47;5.93;;;3.70;;
63714;SDS011;49858;48.956;9.076;2023-02-28T02:13:29;3.22;;;2.28;;
63714;SDS011;49858;48.956;9.076;2023-02-28T02:16:30;8.35;;;3.75;;
63714;SDS011;49858;48.956;9.076;2023-02-28T02:19:09;5.93;;;3.80;;
63714;SDS011;49858;48.956;9.076;2023-02-28T02:22:00;7.07;;;3.00;;
63714;SDS011;49858;48.956;9.076;2023-02-28T02:24:51;3.30;;;2.45;;
63714;SDS011;49858;48.956;9.076;2023-02-28T02:27:39;7.00;;;4.40;;
63714;SDS011;49858;48.956;9.076;2023-02-28T02:30:27;6.20;;;3.60;;
63714;SDS011;49858;48.956;9.076;2023-02-28T02:33:17;5.47;;;3.10;;
63714;SDS011;49858;48.956;9.076;2023-02-28T02:35:59;8.15;;;5.35;;
63714;SDS011;49858;48.956;9.076;2023-02-28T02:38:34;7.55;;;3.60;;
63714;SDS011;49858;48.956;9.076;2023-02-28T02:41:08;4.43;;;2.60;;
63714;SDS011;49858;48.956;9.076;2023-02-28T02:43:44;4.28;;;2.90;;
63714;SDS011;49858;48.956;9.076;2023-02-28T02:48:47;3.78;;;2.97;;
63714;SDS011;49858;48.956;9.076;2023-02-28T02:51:17;6.63;;;3.72;;
63714;SDS011;49858;48.956;9.076;2023-02-28T02:53:53;5.90;;;4.20;;
63714;SDS011;49858;48.956;9.076;2023-02-28T02:56:32;8.13;;;4.22;;
63714;SDS011;49858;48.956;9.076;2023-02-28T02:59:04;7.57;;;5.00;;
63714;SDS011;49858;48.956;9.076;2023-02-28T03:01:36;4.63;;;3.17;;
63714;SDS011;49858;48.956;9.076;2023-02-28T03:04:07;5.57;;;2.92;;
63714;SDS011;49858;48.956;9.076;2023-02-28T03:06:41;5.38;;;3.15;;
63714;SDS011;49858;48.956;9.076;2023-02-28T03:09:09;8.15;;;4.35;;
63714;SDS011;49858;48.956;9.076;2023-02-28T03:11:38;8.32;;;4.55;;
63714;SDS011;49858;48.956;9.076;2023-02-28T03:14:13;7.13;;;3.35;;
63714;SDS011;49858;48.956;9.076;2023-02-28T03:17:00;4.18;;;2.33;;
63714;SDS011;49858;48.956;9.076;2023-02-28T03:19:47;5.70;;;3.40;;
63714;SDS011;49858;48.956;9.076;2023-02-28T03:22:32;7.10;;;3.22;;
63714;SDS011;49858;48.956;9.076;2023-02-28T03:25:17;3.67;;;2.58;;
63714;SDS011;49858;48.956;9.076;2023-02-28T03:27:52;2.72;;;2.40;;
63714;SDS011;49858;48.956;9.076;2023-02-28T03:30:33;4.43;;;3.25;;
63714;SDS011;49858;48.956;9.076;2023-02-28T03:33:06;4.28;;;2.03;;
63714;SDS011;49858;48.956;9.076;2023-02-28T03:35:39;7.55;;;3.25;;
63714;SDS011;49858;48.956;9.076;2023-02-28T03:38:13;6.63;;;3.95;;
63714;SDS011;49858;48.956;9.076;2023-02-28T03:40:46;6.53;;;4.25;;
63714;SDS011;49858;48.956;9.076;2023-02-28T03:43:18;6.70;;;4.63;;
63714;SDS011;49858;48.956;9.076;2023-02-28T03:45:50;5.57;;;3.50;;
63714;SDS011;49858;48.956;9.076;2023-02-28T03:48:22;9.60;;;4.78;;
63714;SDS011;49858;48.956;9.076;2023-02-28T03:50:53;3.58;;;2.85;;
63714;SDS011;49858;48.956;9.076;2023-02-28T03:53:27;6.25;;;3.63;;
63714;SDS011;49858;48.956;9.076;2023-02-28T03:55:59;4.68;;;3.15;;
63714;SDS011;49858;48.956;9.076;2023-02-28T03:58:35;7.85;;;4.32;;
63714;SDS011;49858;48.956;9.076;2023-02-28T04:01:10;5.13;;;3.05;;
63714;SDS011;49858;48.956;9.076;2023-02-28T04:03:43;8.43;;;3.77;;
63714;SDS011;49858;48.956;9.076;2023-02-28T04:06:13;2.35;;;1.90;;
63714;SDS011;49858;48.956;9.076;2023-02-28T04:08:45;6.43;;;3.45;;
63714;SDS011;49858;48.956;9.076;2023-02-28T04:11:16;4.65;;;3.17;;
63714;SDS011;49858;48.956;9.076;2023-02-28T04:13:48;5.43;;;3.15;;
63714;SDS011;49858;48.956;9.076;2023-02-28T04:16:16;6.15;;;3.55;;
63714;SDS011;49858;48.956;9.076;2023-02-28T04:19:00;8.88;;;3.50;;
63714;SDS011;49858;48.956;9.076;2023-02-28T04:21:30;3.33;;;2.83;;
63714;SDS011;49858;48.956;9.076;2023-02-28T04:24:00;10.18;;;4.38;;
63714;SDS011;49858;48.956;9.076;2023-02-28T04:26:29;3.28;;;2.25;;
63714;SDS011;49858;48.956;9.076;2023-02-28T04:28:57;7.47;;;3.92;;
63714;SDS011;49858;48.956;9.076;2023-02-28T04:31:25;4.82;;;2.92;;
63714;SDS011;49858;48.956;9.076;2023-02-28T04:33:54;5.35;;;2.67;;
63714;SDS011;49858;48.956;9.076;2023-02-28T04:36:22;5.95;;;3.63;;
63714;SDS011;49858;48.956;9.076;2023-02-28T04:38:50;5.03;;;2.97;;
63714;SDS011;49858;48.956;9.076;2023-02-28T04:41:19;9.55;;;4.32;;
63714;SDS011;49858;48.956;9.076;2023-02-28T04:43:49;6.68;;;3.65;;
63714;SDS011;49858;48.956;9.076;2023-02-28T04:46:18;9.98;;;5.65;;
63714;SDS011;49858;48.956;9.076;2023-02-28T04:48:47;4.00;;;3.30;;
63714;SDS011;49858;48.956;9.076;2023-02-28T04:51:16;8.90;;;5.00;;
63714;SDS011;49858;48.956;9.076;2023-02-28T04:53:45;5.63;;;3.75;;
63714;SDS011;49858;48.956;9.076;2023-02-28T04:56:13;8.50;;;5.20;;
63714;SDS011;49858;48.956;9.076;2023-02-28T04:58:44;6.03;;;3.47;;
63714;SDS011;49858;48.956;9.076;2023-02-28T05:01:20;9.10;;;3.97;;
63714;SDS011;49858;48.956;9.076;2023-02-28T05:03:49;7.47;;;3.38;;
63714;SDS011;49858;48.956;9.076;2023-02-28T05:06:18;8.25;;;3.85;;
63714;SDS011;49858;48.956;9.076;2023-02-28T05:08:47;7.38;;;4.25;;
63714;SDS011;49858;48.956;9.076;2023-02-28T05:11:16;6.63;;;4.07;;
63714;SDS011;49858;48.956;9.076;2023-02-28T05:13:46;5.63;;;3.97;;
63714;SDS011;49858;48.956;9.076;2023-02-28T05:16:15;5.45;;;3.63;;
63714;SDS011;49858;48.956;9.076;2023-02-28T05:18:43;9.35;;;4.55;;
63714;SDS011;49858;48.956;9.076;2023-02-28T05:21:22;6.93;;;4.78;;
63714;SDS011;49858;48.956;9.076;2023-02-28T05:23:53;9.02;;;4.57;;
63714;SDS011;49858;48.956;9.076;2023-02-28T05:26:22;4.72;;;2.92;;
63714;SDS011;49858;48.956;9.076;2023-02-28T05:28:51;7.88;;;4.05;;
63714;SDS011;49858;48.956;9.076;2023-02-28T05:31:19;3.03;;;2.10;;
63714;SDS011;49858;48.956;9.076;2023-02-28T05:33:47;7.57;;;3.83;;
63714;SDS011;49858;48.956;9.076;2023-02-28T05:36:15;9.00;;;4.03;;
63714;SDS011;49858;48.956;9.076;2023-02-28T05:38:45;7.88;;;4.55;;
63714;SDS011;49858;48.956;9.076;2023-02-28T05:41:14;7.47;;;3.78;;
63714;SDS011;49858;48.956;9.076;2023-02-28T05:43:43;4.15;;;2.80;;
63714;SDS011;49858;48.956;9.076;2023-02-28T05:46:12;4.05;;;2.60;;
63714;SDS011;49858;48.956;9.076;2023-02-28T05:48:40;9.05;;;4.47;;
63714;SDS011;49858;48.956;9.076;2023-02-28T05:51:09;6.78;;;3.58;;
63714;SDS011;49858;48.956;9.076;2023-02-28T05:53:37;5.05;;;3.53;;
63714;SDS011;49858;48.956;9.076;2023-02-28T05:56:05;5.00;;;3.40;;
63714;SDS011;49858;48.956;9.076;2023-02-28T05:58:32;9.77;;;4.28;;
63714;SDS011;49858;48.956;9.076;2023-02-28T06:01:18;3.20;;;2.25;;
63714;SDS011;49858;48.956;9.076;2023-02-28T06:03:49;2.45;;;1.63;;
63714;SDS011;49858;48.956;9.076;2023-02-28T06:06:16;8.48;;;4.18;;
63714;SDS011;49858;48.956;9.076;2023-02-28T06:08:44;8.38;;;5.07;;
63714;SDS011;49858;48.956;9.076;2023-02-28T06:11:12;8.90;;;5.03;;
63714;SDS011;49858;48.956;9.076;2023-02-28T06:13:40;2.08;;;1.83;;
63714;SDS011;49858;48.956;9.076;2023-02-28T06:16:08;6.95;;;4.10;;
63714;SDS011;49858;48.956;9.076;2023-02-28T06:18:39;9.30;;;4.88;;
63714;SDS011;49858;48.956;9.076;2023-02-28T06:21:06;7.95;;;4.57;;
63714;SDS011;49858;48.956;9.076;2023-02-28T06:23:35;8.90;;;4.78;;
63714;SDS011;49858;48.956;9.076;2023-02-28T06:26:03;6.32;;;4.13;;
63714;SDS011;49858;48.956;9.076;2023-02-28T06:28:31;8.32;;;3.90;;
63714;SDS011;49858;48.956;9.076;2023-02-28T06:30:59;11.70;;;5.68;;
63714;SDS011;49858;48.956;9.076;2023-02-28T06:33:33;4.80;;;2.58;;
63714;SDS011;49858;48.956;9.076;2023-02-28T06:36:02;5.00;;;3.67;;
63714;SDS011;49858;48.956;9.076;2023-02-28T06:38:30;4.35;;;3.28;;
63714;SDS011;49858;48.956;9.076;2023-02-28T06:40:59;8.00;;;4.40;;
63714;SDS011;49858;48.956;9.076;2023-02-28T06:43:28;10.23;;;4.63;;
63714;SDS011;49858;48.956;9.076;2023-02-28T06:45:57;4.88;;;2.92;;
63714;SDS011;49858;48.956;9.076;2023-02-28T06:48:26;10.15;;;5.45;;
63714;SDS011;49858;48.956;9.076;2023-02-28T06:51:04;3.92;;;3.05;;
63714;SDS011;49858;48.956;9.076;2023-02-28T06:54:40;8.98;;;4.78;;
63714;SDS011;49858;48.956;9.076;2023-02-28T06:57:17;5.78;;;2.58;;
63714;SDS011;49858;48.956;9.076;2023-02-28T06:59:45;9.27;;;3.65;;
63714;SDS011;49858;48.956;9.076;2023-02-28T07:02:12;10.45;;;4.68;;
63714;SDS011;49858;48.956;9.076;2023-02-28T07:04:40;5.60;;;3.88;;
63714;SDS011;49858;48.956;9.076;2023-02-28T07:07:12;8.25;;;5.13;;
63714;SDS011;49858;48.956;9.076;2023-02-28T07:09:40;9.10;;;4.63;;
63714;SDS011;49858;48.956;9.076;2023-02-28T07:12:08;9.38;;;4.90;;
63714;SDS011;49858;48.956;9.076;2023-02-28T07:14:36;8.27;;;3.58;;
63714;SDS011;49858;48.956;9.076;2023-02-28T07:17:04;7.82;;;3.15;;
63714;SDS011;49858;48.956;9.076;2023-02-28T07:19:36;3.35;;;2.10;;
63714;SDS011;49858;48.956;9.076;2023-02-28T07:22:04;4.70;;;2.20;;
63714;SDS011;49858;48.956;9.076;2023-02-28T07:24:36;9.65;;;4.97;;
63714;SDS011;49858;48.956;9.076;2023-02-28T07:27:04;7.15;;;3.58;;
63714;SDS011;49858;48.956;9.076;2023-02-28T07:29:32;5.00;;;3.78;;
63714;SDS011;49858;48.956;9.076;2023-02-28T07:32:00;12.23;;;6.03;;
63714;SDS011;49858;48.956;9.076;2023-02-28T07:34:28;7.35;;;3.90;;
63714;SDS011;49858;48.956;9.076;2023-02-28T07:36:56;4.13;;;2.42;;
63714;SDS011;49858;48.956;9.076;2023-02-28T07:39:24;11.57;;;6.20;;
63714;SDS011;49858;48.956;9.076;2023-02-28T07:41:53;9.30;;;3.90;;
63714;SDS011;49858;48.956;9.076;2023-02-28T07:44:25;8.02;;;3.47;;
63714;SDS011;49858;48.956;9.076;2023-02-28T07:46:53;11.98;;;4.97;;
63714;SDS011;49858;48.956;9.076;2023-02-28T07:49:20;9.60;;;5.57;;
63714;SDS011;49858;48.956;9.076;2023-02-28T07:51:48;10.75;;;5.20;;
63714;SDS011;49858;48.956;9.076;2023-02-28T07:54:16;7.43;;;4.18;;
63714;SDS011;49858;48.956;9.076;2023-02-28T07:56:44;8.05;;;4.18;;
63714;SDS011;49858;48.956;9.076;2023-02-28T07:59:13;12.52;;;7.13;;
63714;SDS011;49858;48.956;9.076;2023-02-28T08:01:41;4.30;;;2.63;;
63714;SDS011;49858;48.956;9.076;2023-02-28T08:04:10;12.45;;;5.15;;
63714;SDS011;49858;48.956;9.076;2023-02-28T08:06:38;10.23;;;5.93;;
63714;SDS011;49858;48.956;9.076;2023-02-28T08:09:06;13.55;;;6.07;;
63714;SDS011;49858;48.956;9.076;2023-02-28T08:11:34;5.35;;;3.25;;
63714;SDS011;49858;48.956;9.076;2023-02-28T08:14:02;6.18;;;3.65;;
63714;SDS011;49858;48.956;9.076;2023-02-28T08:16:31;8.95;;;4.28;;
63714;SDS011;49858;48.956;9.076;2023-02-28T08:18:59;11.25;;;4.95;;
63714;SDS011;49858;48.956;9.076;2023-02-28T08:21:27;9.43;;;5.38;;
63714;SDS011;49858;48.956;9.076;2023-02-28T08:23:55;12.07;;;6.70;;
63714;SDS011;49858;48.956;9.076;2023-02-28T08:26:23;14.02;;;6.25;;
63714;SDS011;49858;48.956;9.076;2023-02-28T08:28:51;6.90;;;3.30;;
63714;SDS011;49858;48.956;9.076;2023-02-28T08:31:22;9.00;;;5.40;;
63714;SDS011;49858;48.956;9.076;2023-02-28T08:33:51;9.95;;;5.35;;
63714;SDS011;49858;48.956;9.076;2023-02-28T08:36:22;10.50;;;5.30;;
63714;SDS011;49858;48.956;9.076;2023-02-28T08:38:51;10.77;;;5.03;;
63714;SDS011;49858;48.956;9.076;2023-02-28T08:41:19;14.63;;;7.75;;
63714;SDS011;49858;48.956;9.076;2023-02-28T08:43:47;10.10;;;4.30;;
63714;SDS011;49858;48.956;9.076;2023-02-28T08:46:14;14.40;;;6.97;;
63714;SDS011;49858;48.956;9.076;2023-02-28T08:48:43;9.75;;;5.75;;
63714;SDS011;49858;48.956;9.076;2023-02-28T08:51:13;15.38;;;5.80;;
63714;SDS011;49858;48.956;9.076;2023-02-28T08:53:44;9.80;;;4.53;;
63714;SDS011;49858;48.956;9.076;2023-02-28T08:56:13;13.77;;;6.93;;
63714;SDS011;49858;48.956;9.076;2023-02-28T08:58:42;13.27;;;7.30;;
63714;SDS011;49858;48.956;9.076;2023-02-28T09:01:11;13.10;;;6.05;;
63714;SDS011;49858;48.956;9.076;2023-02-28T09:03:41;3.58;;;2.85;;
63714;SDS011;49858;48.956;9.076;2023-02-28T09:06:09;11.68;;;4.93;;
63714;SDS011;49858;48.956;9.076;2023-02-28T09:08:39;10.27;;;6.53;;
63714;SDS011;49858;48.956;9.076;2023-02-28T09:11:07;15.13;;;8.07;;
63714;SDS011;49858;48.956;9.076;2023-02-28T09:13:36;13.95;;;7.13;;
63714;SDS011;49858;48.956;9.076;2023-02-28T09:16:05;13.70;;;7.80;;
63714;SDS011;49858;48.956;9.076;2023-02-28T09:18:34;12.73;;;7.53;;
63714;SDS011;49858;48.956;9.076;2023-02-28T09:21:03;12.50;;;7.03;;
63714;SDS011;49858;48.956;9.076;2023-02-28T09:23:32;13.35;;;8.05;;
63714;SDS011;49858;48.956;9.076;2023-02-28T09:26:01;9.55;;;5.13;;
63714;SDS011;49858;48.956;9.076;2023-02-28T09:28:29;17.33;;;8.88;;
63714;SDS011;49858;48.956;9.076;2023-02-28T09:30:57;16.50;;;6.88;;
63714;SDS011;49858;48.956;9.076;2023-02-28T09:33:26;12.93;;;7.93;;
63714;SDS011;49858;48.956;9.076;2023-02-28T09:35:57;11.45;;;5.80;;
63714;SDS011;49858;48.956;9.076;2023-02-28T09:38:29;13.70;;;7.28;;
63714;SDS011;49858;48.956;9.076;2023-02-28T09:40:58;13.18;;;6.97;;
63714;SDS011;49858;48.956;9.076;2023-02-28T09:43:31;13.48;;;7.32;;
63714;SDS011;49858;48.956;9.076;2023-02-28T09:46:05;12.82;;;7.15;;
63714;SDS011;49858;48.956;9.076;2023-02-28T09:48:39;15.35;;;7.95;;
63714;SDS011;49858;48.956;9.076;2023-02-28T09:51:21;18.33;;;8.98;;
63714;SDS011;49858;48.956;9.076;2023-02-28T09:54:00;14.90;;;7.60;;
63714;SDS011;49858;48.956;9.076;2023-02-28T09:56:30;11.32;;;6.55;;
63714;SDS011;49858;48.956;9.076;2023-02-28T10:01:39;14.85;;;6.43;;
63714;SDS011;49858;48.956;9.076;2023-02-28T10:04:14;17.60;;;6.53;;
63714;SDS011;49858;48.956;9.076;2023-02-28T10:06:53;9.20;;;4.38;;
63714;SDS011;49858;48.956;9.076;2023-02-28T10:09:22;8.73;;;5.32;;
63714;SDS011;49858;48.956;9.076;2023-02-28T10:11:53;14.27;;;8.07;;
63714;SDS011;49858;48.956;9.076;2023-02-28T10:17:00;14.25;;;7.22;;
63714;SDS011;49858;48.956;9.076;2023-02-28T10:19:32;15.32;;;7.95;;
63714;SDS011;49858;48.956;9.076;2023-02-28T10:22:09;13.55;;;8.30;;
63714;SDS011;49858;48.956;9.076;2023-02-28T10:24:41;15.52;;;7.90;;
63714;SDS011;49858;48.956;9.076;2023-02-28T10:27:13;12.50;;;6.20;;
63714;SDS011;49858;48.956;9.076;2023-02-28T10:29:43;15.13;;;8.82;;
63714;SDS011;49858;48.956;9.076;2023-02-28T10:32:14;14.00;;;8.25;;
63714;SDS011;49858;48.956;9.076;2023-02-28T10:34:44;11.98;;;6.90;;
63714;SDS011;49858;48.956;9.076;2023-02-28T10:37:12;14.50;;;8.35;;
63714;SDS011;49858;48.956;9.076;2023-02-28T10:39:42;15.23;;;8.50;;
63714;SDS011;49858;48.956;9.076;2023-02-28T10:42:19;14.32;;;7.38;;
63714;SDS011;49858;48.956;9.076;2023-02-28T10:47:49;14.40;;;8.93;;
63714;SDS011;49858;48.956;9.076;2023-02-28T10:50:28;12.38;;;6.88;;
63714;SDS011;49858;48.956;9.076;2023-02-28T10:53:08;21.58;;;9.32;;
63714;SDS011;49858;48.956;9.076;2023-02-28T10:55:59;14.43;;;8.38;;
63714;SDS011;49858;48.956;9.076;2023-02-28T10:58:29;12.30;;;7.68;;
63714;SDS011;49858;48.956;9.076;2023-02-28T11:01:00;14.45;;;8.57;;
63714;SDS011;49858;48.956;9.076;2023-02-28T11:03:29;11.45;;;7.25;;
63714;SDS011;49858;48.956;9.076;2023-02-28T11:06:03;11.23;;;6.90;;
63714;SDS011;49858;48.956;9.076;2023-02-28T11:08:34;12.98;;;8.27;;
63714;SDS011;49858;48.956;9.076;2023-02-28T11:11:10;12.13;;;6.60;;
63714;SDS011;49858;48.956;9.076;2023-02-28T11:13:38;14.02;;;8.10;;
63714;SDS011;49858;48.956;9.076;2023-02-28T11:16:10;13.25;;;8.95;;
63714;SDS011;49858;48.956;9.076;2023-02-28T11:18:40;16.08;;;8.30;;
63714;SDS011;49858;48.956;9.076;2023-02-28T11:21:15;16.23;;;8.02;;
63714;SDS011;49858;48.956;9.076;2023-02-28T11:23:46;18.95;;;9.13;;
63714;SDS011;49858;48.956;9.076;2023-02-28T11:26:16;15.75;;;8.35;;
63714;SDS011;49858;48.956;9.076;2023-02-28T11:29:08;15.07;;;8.88;;
63714;SDS011;49858;48.956;9.076;2023-02-28T11:31:41;14.70;;;7.65;;
63714;SDS011;49858;48.956;9.076;2023-02-28T11:34:22;12.65;;;7.35;;
63714;SDS011;49858;48.956;9.076;2023-02-28T11:36:53;13.27;;;7.90;;
63714;SDS011;49858;48.956;9.076;2023-02-28T11:39:23;12.70;;;7.90;;
63714;SDS011;49858;48.956;9.076;2023-02-28T11:42:02;16.58;;;7.85;;
63714;SDS011;49858;48.956;9.076;2023-02-28T11:44:43;13.18;;;7.20;;
63714;SDS011;49858;48.956;9.076;2023-02-28T11:47:25;9.75;;;5.47;;
63714;SDS011;49858;48.956;9.076;2023-02-28T11:50:08;10.50;;;5.03;;
63714;SDS011;49858;48.956;9.076;2023-02-28T11:52:48;13.35;;;7.05;;
63714;SDS011;49858;48.956;9.076;2023-02-28T11:55:21;10.50;;;6.05;;
63714;SDS011;49858;48.956;9.076;2023-02-28T11:58:02;12.23;;;7.28;;
63714;SDS011;49858;48.956;9.076;2023-02-28T12:00:59;11.02;;;7.45;;
63714;SDS011;49858;48.956;9.076;2023-02-28T12:03:39;10.05;;;5.80;;
63714;SDS011;49858;48.956;9.076;2023-02-28T12:06:18;10.35;;;6.60;;
63714;SDS011;49858;48.956;9.076;2023-02-28T12:08:55;12.52;;;7.95;;
63714;SDS011;49858;48.956;9.076;2023-02-28T12:11:32;12.60;;;7.78;;
63714;SDS011;49858;48.956;9.076;2023-02-28T12:14:17;7.53;;;4.35;;
63714;SDS011;49858;48.956;9.076;2023-02-28T12:17:09;10.90;;;6.78;;
63714;SDS011;49858;48.956;9.076;2023-02-28T12:19:59;12.25;;;7.95;;
63714;SDS011;49858;48.956;9.076;2023-02-28T12:22:36;9.70;;;5.75;;
63714;SDS011;49858;48.956;9.076;2023-02-28T12:25:32;8.07;;;5.43;;
63714;SDS011;49858;48.956;9.076;2023-02-28T12:28:14;10.73;;;5.40;;
63714;SDS011;49858;48.956;9.076;2023-02-28T12:30:46;11.93;;;6.00;;
63714;SDS011;49858;48.956;9.076;2023-02-28T12:33:20;10.63;;;6.90;;
63714;SDS011;49858;48.956;9.076;2023-02-28T12:35:54;13.18;;;6.68;;
63714;SDS011;49858;48.956;9.076;2023-02-28T12:38:26;9.77;;;6.47;;
63714;SDS011;49858;48.956;9.076;2023-02-28T12:40:56;11.60;;;7.25;;
63714;SDS011;49858;48.956;9.076;2023-02-28T12:43:30;11.73;;;7.90;;
63714;SDS011;49858;48.956;9.076;2023-02-28T12:46:02;11.30;;;7.90;;
63714;SDS011;49858;48.956;9.076;2023-02-28T12:48:37;12.32;;;7.28;;
63714;SDS011;49858;48.956;9.076;2023-02-28T12:51:15;13.27;;;7.38;;
63714;SDS011;49858;48.956;9.076;2023-02-28T12:53:50;13.68;;;6.63;;
63714;SDS011;49858;48.956;9.076;2023-02-28T12:56:29;12.18;;;7.25;;
63714;SDS011;49858;48.956;9.076;2023-02-28T12:59:03;12.40;;;6.65;;
63714;SDS011;49858;48.956;9.076;2023-02-28T13:01:47;14.52;;;7.68;;
63714;SDS011;49858;48.956;9.076;2023-02-28T13:04:29;11.77;;;7.25;;
63714;SDS011;49858;48.956;9.076;2023-02-28T13:07:28;11.75;;;7.88;;
63714;SDS011;49858;48.956;9.076;2023-02-28T13:10:08;12.65;;;7.97;;
63714;SDS011;49858;48.956;9.076;2023-02-28T13:12:37;12.48;;;6.75;;
63714;SDS011;49858;48.956;9.076;2023-02-28T13:15:16;16.63;;;7.05;;
63714;SDS011;49858;48.956;9.076;2023-02-28T13:17:48;11.48;;;6.93;;
63714;SDS011;49858;48.956;9.076;2023-02-28T13:20:18;10.38;;;5.18;;
63714;SDS011;49858;48.956;9.076;2023-02-28T13:22:49;11.48;;;7.93;;
63714;SDS011;49858;48.956;9.076;2023-02-28T13:34:35;16.08;;;8.23;;
63714;SDS011;49858;48.956;9.076;2023-02-28T13:42:55;11.43;;;7.07;;
63714;SDS011;49858;48.956;9.076;2023-02-28T13:45:24;13.52;;;7.82;;
63714;SDS011;49858;48.956;9.076;2023-02-28T13:47:54;13.25;;;7.63;;
63714;SDS011;49858;48.956;9.076;2023-02-28T13:50:30;12.63;;;7.82;;
63714;SDS011;49858;48.956;9.076;2023-02-28T13:56:05;13.32;;;7.35;;
63714;SDS011;49858;48.956;9.076;2023-02-28T13:58:48;13.73;;;8.73;;
63714;SDS011;49858;48.956;9.076;2023-02-28T14:01:24;14.52;;;8.80;;
63714;SDS011;49858;48.956;9.076;2023-02-28T14:04:08;11.88;;;5.93;;
63714;SDS011;49858;48.956;9.076;2023-02-28T14:06:49;13.55;;;8.75;;
63714;SDS011;49858;48.956;9.076;2023-02-28T14:09:21;12.18;;;6.80;;
63714;SDS011;49858;48.956;9.076;2023-02-28T14:11:53;13.85;;;8.30;;
63714;SDS011;49858;48.956;9.076;2023-02-28T14:17:23;14.13;;;6.80;;
63714;SDS011;49858;48.956;9.076;2023-02-28T14:19:52;10.80;;;6.55;;
63714;SDS011;49858;48.956;9.076;2023-02-28T14:22:36;12.90;;;7.72;;
63714;SDS011;49858;48.956;9.076;2023-02-28T14:25:16;9.98;;;6.43;;
63714;SDS011;49858;48.956;9.076;2023-02-28T14:27:55;14.50;;;8.23;;
63714;SDS011;49858;48.956;9.076;2023-02-28T14:33:27;14.32;;;9.18;;
63714;SDS011;49858;48.956;9.076;2023-02-28T14:36:07;13.48;;;7.20;;
63714;SDS011;49858;48.956;9.076;2023-02-28T14:38:42;11.98;;;7.70;;
63714;SDS011;49858;48.956;9.076;2023-02-28T14:41:16;13.20;;;8.35;;
63714;SDS011;49858;48.956;9.076;2023-02-28T14:43:54;11.77;;;7.38;;
63714;SDS011;49858;48.956;9.076;2023-02-28T14:46:24;11.77;;;7.40;;
63714;SDS011;49858;48.956;9.076;2023-02-28T14:48:56;14.15;;;6.97;;
63714;SDS011;49858;48.956;9.076;2023-02-28T14:51:24;14.85;;;7.53;;
63714;SDS011;49858;48.956;9.076;2023-02-28T14:53:56;13.45;;;7.03;;
63714;SDS011;49858;48.956;9.076;2023-02-28T14:56:26;14.50;;;7.80;;
63714;SDS011;49858;48.956;9.076;2023-02-28T14:59:01;13.15;;;8.27;;
63714;SDS011;49858;48.956;9.076;2023-02-28T15:01:29;14.45;;;7.50;;
63714;SDS011;49858;48.956;9.076;2023-02-28T15:04:02;13.02;;;7.13;;
63714;SDS011;49858;48.956;9.076;2023-02-28T15:06:31;13.23;;;6.53;;
63714;SDS011;49858;48.956;9.076;2023-02-28T15:09:07;18.30;;;9.00;;
63714;SDS011;49858;48.956;9.076;2023-02-28T15:11:37;13.10;;;7.00;;
63714;SDS011;49858;48.956;9.076;2023-02-28T15:14:12;14.68;;;6.82;;
63714;SDS011;49858;48.956;9.076;2023-02-28T15:16:44;10.50;;;5.50;;
63714;SDS011;49858;48.956;9.076;2023-02-28T15:19:17;16.63;;;8.68;;
63714;SDS011;49858;48.956;9.076;2023-02-28T15:21:49;14.07;;;7.60;;
63714;SDS011;49858;48.956;9.076;2023-02-28T15:24:21;14.93;;;8.55;;
63714;SDS011;49858;48.956;9.076;2023-02-28T15:26:57;15.90;;;9.60;;
63714;SDS011;49858;48.956;9.076;2023-02-28T15:29:28;14.02;;;8.63;;
63714;SDS011;49858;48.956;9.076;2023-02-28T15:32:00;14.10;;;8.57;;
63714;SDS011;49858;48.956;9.076;2023-02-28T15:34:34;14.15;;;8.30;;
63714;SDS011;49858;48.956;9.076;2023-02-28T15:40:10;13.70;;;6.95;;
63714;SDS011;49858;48.956;9.076;2023-02-28T15:42:40;17.10;;;8.55;;
63714;SDS011;49858;48.956;9.076;2023-02-28T15:48:04;11.55;;;7.10;;
63714;SDS011;49858;48.956;9.076;2023-02-28T15:50:40;15.30;;;8.60;;
63714;SDS011;49858;48.956;9.076;2023-02-28T15:53:12;12.93;;;7.18;;
63714;SDS011;49858;48.956;9.076;2023-02-28T15:55:41;15.18;;;7.78;;